Time;durP1;ratioP1;P1;durP2;ratioP2;P2;SDS_P1;SDS_P2;PMS_P1;PMS_P2;Temp;Humidity;BMP_temperature;BMP_pressure;BME280_temperature;BME280_humidity;BME280_pressure;Samples;Min_cycle;Max_cycle;Signal;HPM_P1;HPM_P2
2024/01/25 00:03:58;;;;;;;2.83;1.42;;;13.50;99.90;;;;;;10063855;28;20106;-68
2024/01/25 00:08:49;;;;;;;3.00;1.02;;;13.50;99.90;;;;;;10059981;28;20440;-69
2024/01/25 00:13:39;;;;;;;5.88;1.92;;;13.50;99.90;;;;;;10059125;28;20042;-69
2024/01/25 00:18:30;;;;;;;4.95;2.47;;;13.50;99.90;;;;;;10054512;28;20034;-69
2024/01/25 00:23:21;;;;;;;3.67;1.35;;;13.50;99.90;;;;;;10056157;28;20058;-69
2024/01/25 00:28:12;;;;;;;3.88;1.70;;;13.40;99.90;;;;;;10057653;28;20056;-69
2024/01/25 00:33:03;;;;;;;8.30;1.73;;;13.40;99.90;;;;;;10056850;28;20037;-69
2024/01/25 00:37:54;;;;;;;3.90;2.20;;;13.40;99.90;;;;;;10090322;28;20040;-68
2024/01/25 00:42:52;;;;;;;5.63;1.70;;;13.40;99.90;;;;;;10058289;28;20389;-69
2024/01/25 00:47:43;;;;;;;5.97;1.92;;;13.40;99.90;;;;;;10061077;28;20046;-69
2024/01/25 00:52:35;;;;;;;5.20;1.73;;;13.40;99.90;;;;;;10062560;28;20056;-70
2024/01/25 00:57:26;;;;;;;4.50;2.08;;;13.40;99.90;;;;;;10058412;28;20557;-69
2024/01/25 01:02:20;;;;;;;4.28;2.40;;;13.30;99.90;;;;;;10059017;28;20033;-68
2024/01/25 01:07:11;;;;;;;2.13;1.08;;;13.30;99.90;;;;;;10056947;28;20041;-70
2024/01/25 01:12:01;;;;;;;4.45;2.42;;;13.30;99.90;;;;;;10057635;28;20032;-68
2024/01/25 01:16:52;;;;;;;3.65;1.45;;;13.20;99.90;;;;;;10059154;28;20466;-68
2024/01/25 01:21:43;;;;;;;6.25;1.90;;;13.30;99.90;;;;;;10056789;28;20053;-69
2024/01/25 01:26:35;;;;;;;6.28;2.13;;;13.20;99.90;;;;;;10057139;28;20453;-70
2024/01/25 01:31:25;;;;;;;3.80;1.65;;;13.20;99.90;;;;;;10056719;28;20040;-68
2024/01/25 01:36:16;;;;;;;7.45;1.73;;;13.20;99.90;;;;;;10057113;28;20398;-68
2024/01/25 01:41:07;;;;;;;3.38;2.20;;;13.20;99.90;;;;;;10055753;28;20455;-68
2024/01/25 01:46:06;;;;;;;4.07;1.40;;;13.20;99.90;;;;;;10054380;28;20084;-69
2024/01/25 01:50:56;;;;;;;4.93;1.35;;;13.20;99.90;;;;;;10054615;28;20398;-68
2024/01/25 01:55:47;;;;;;;4.03;1.30;;;13.10;99.90;;;;;;10059323;28;20047;-69
2024/01/25 02:00:40;;;;;;;5.65;1.60;;;13.10;99.90;;;;;;10057186;28;20032;-69
2024/01/25 02:05:31;;;;;;;3.88;1.20;;;13.10;99.90;;;;;;10055951;28;20455;-69
2024/01/25 02:10:22;;;;;;;4.32;1.17;;;13.20;99.90;;;;;;10055509;28;20029;-68
2024/01/25 02:15:12;;;;;;;4.88;1.60;;;13.10;99.90;;;;;;10055288;28;20487;-69
2024/01/25 02:20:04;;;;;;;7.20;1.67;;;13.10;99.90;;;;;;10055460;28;20037;-69
2024/01/25 02:24:55;;;;;;;4.22;1.73;;;13.00;99.90;;;;;;10054506;28;20879;-68
2024/01/25 02:29:45;;;;;;;4.90;1.23;;;12.90;99.90;;;;;;10055072;28;20047;-68
2024/01/25 02:34:36;;;;;;;5.35;1.67;;;12.70;99.90;;;;;;10054956;28;20021;-69
2024/01/25 02:39:27;;;;;;;8.45;1.35;;;12.70;99.90;;;;;;10054913;28;20045;-68
2024/01/25 02:44:17;;;;;;;4.95;0.85;;;12.60;99.90;;;;;;10055444;28;20033;-68
2024/01/25 02:49:08;;;;;;;6.50;1.17;;;12.50;99.90;;;;;;10054613;28;20041;-68
2024/01/25 02:53:58;;;;;;;4.25;1.20;;;12.50;99.90;;;;;;10064931;28;20022;-68
2024/01/25 02:58:49;;;;;;;5.65;2.15;;;12.50;99.90;;;;;;10062605;28;20049;-69
2024/01/25 03:03:40;;;;;;;4.38;1.27;;;12.50;99.90;;;;;;10061941;28;20159;-69
2024/01/25 03:08:30;;;;;;;4.82;1.40;;;12.50;99.90;;;;;;10061599;28;20033;-68
2024/01/25 03:13:21;;;;;;;3.63;1.30;;;12.60;99.90;;;;;;10061352;28;20079;-68
2024/01/25 03:18:12;;;;;;;3.42;1.13;;;12.70;99.90;;;;;;10061791;28;20068;-68
2024/01/25 03:23:03;;;;;;;5.57;1.80;;;12.60;99.90;;;;;;10060011;28;20041;-68
2024/01/25 03:27:53;;;;;;;2.35;0.95;;;12.60;99.90;;;;;;10061242;28;20067;-68
2024/01/25 03:32:46;;;;;;;4.57;1.63;;;12.60;99.90;;;;;;10063876;28;20017;-68
2024/01/25 03:37:36;;;;;;;7.55;1.25;;;12.60;99.90;;;;;;10061487;28;20021;-69
2024/01/25 03:42:27;;;;;;;2.25;1.40;;;12.60;99.90;;;;;;10060864;28;20034;-68
2024/01/25 03:47:18;;;;;;;3.30;1.05;;;12.60;99.90;;;;;;10060349;28;20041;-68
2024/01/25 03:52:08;;;;;;;3.53;1.10;;;12.60;99.90;;;;;;10069413;28;20033;-68
2024/01/25 03:56:59;;;;;;;5.20;1.20;;;12.50;99.90;;;;;;10060502;28;20100;-69
2024/01/25 04:01:50;;;;;;;3.35;0.77;;;12.50;99.90;;;;;;10053683;28;20681;-67
2024/01/25 04:06:47;;;;;;;4.30;1.67;;;12.50;99.90;;;;;;10055707;28;20025;-67
2024/01/25 04:11:38;;;;;;;2.22;1.02;;;12.50;99.90;;;;;;10059051;28;20033;-67
2024/01/25 04:16:29;;;;;;;4.50;1.00;;;12.40;99.90;;;;;;10060983;28;20071;-68
2024/01/25 04:21:19;;;;;;;2.38;1.40;;;12.50;99.90;;;;;;10058723;28;20140;-68
2024/01/25 04:26:10;;;;;;;3.55;1.25;;;12.40;99.90;;;;;;10059201;28;20399;-68
2024/01/25 04:31:03;;;;;;;4.93;1.30;;;12.30;99.90;;;;;;10059007;28;20052;-68
2024/01/25 04:35:53;;;;;;;1.73;0.73;;;12.40;99.90;;;;;;10064582;28;20033;-69
2024/01/25 04:40:44;;;;;;;3.50;1.52;;;12.30;99.90;;;;;;10057997;28;20384;-68
2024/01/25 04:45:35;;;;;;;3.15;1.08;;;12.30;99.90;;;;;;10058837;28;20223;-68
2024/01/25 04:50:25;;;;;;;4.05;1.58;;;12.30;99.90;;;;;;10058848;28;20037;-69
2024/01/25 04:55:16;;;;;;;2.25;1.48;;;12.20;99.90;;;;;;10065969;28;20021;-68
2024/01/25 05:00:08;;;;;;;4.82;1.10;;;12.10;99.90;;;;;;10062841;28;20029;-68
2024/01/25 05:04:58;;;;;;;2.72;1.23;;;12.10;99.90;;;;;;10057985;28;20033;-68
2024/01/25 05:09:49;;;;;;;4.75;1.10;;;12.10;99.90;;;;;;10057855;28;20049;-68
2024/01/25 05:14:40;;;;;;;6.18;1.15;;;12.10;99.90;;;;;;10057258;28;20033;-68
2024/01/25 05:19:31;;;;;;;5.53;1.10;;;12.10;99.90;;;;;;10054227;28;20034;-68
2024/01/25 05:24:21;;;;;;;2.03;0.88;;;12.00;99.90;;;;;;10056878;28;20052;-69
2024/01/25 05:29:12;;;;;;;2.38;1.00;;;12.00;99.90;;;;;;10056681;28;20041;-69
2024/01/25 05:34:03;;;;;;;4.35;1.10;;;12.00;99.90;;;;;;10057115;28;20033;-69
2024/01/25 05:38:53;;;;;;;4.82;1.60;;;12.00;99.90;;;;;;10055211;28;20034;-69
2024/01/25 05:43:44;;;;;;;6.93;1.58;;;12.10;99.90;;;;;;10057213;28;20033;-68
2024/01/25 05:48:35;;;;;;;2.08;1.10;;;12.00;99.90;;;;;;10056774;28;20048;-69
2024/01/25 05:53:25;;;;;;;7.43;1.88;;;12.00;99.90;;;;;;10055401;28;20041;-68
2024/01/25 05:58:16;;;;;;;2.35;0.95;;;12.10;99.90;;;;;;10055978;28;20029;-68
2024/01/25 06:03:07;;;;;;;1.83;1.13;;;12.00;99.90;;;;;;10048068;28;20486;-68
2024/01/25 06:07:57;;;;;;;3.08;0.70;;;12.00;99.90;;;;;;10055911;28;20098;-69
2024/01/25 06:12:48;;;;;;;3.60;1.02;;;12.00;99.90;;;;;;10055388;28;20034;-69
2024/01/25 06:17:38;;;;;;;1.02;0.82;;;12.00;99.90;;;;;;10055780;28;20432;-68
2024/01/25 06:22:29;;;;;;;2.10;1.42;;;12.10;99.90;;;;;;10057310;28;20535;-69
2024/01/25 06:27:20;;;;;;;3.20;0.93;;;12.00;99.90;;;;;;10055040;28;20026;-68
2024/01/25 06:32:10;;;;;;;4.97;1.40;;;12.00;99.90;;;;;;10063509;28;20031;-67
2024/01/25 06:37:01;;;;;;;1.95;0.98;;;12.10;99.90;;;;;;10063576;28;20055;-67
2024/01/25 06:41:52;;;;;;;5.78;1.63;;;12.00;99.90;;;;;;10066564;28;20040;-67
2024/01/25 06:46:42;;;;;;;7.88;2.28;;;12.00;99.90;;;;;;10057322;28;20033;-67
2024/01/25 06:51:33;;;;;;;3.80;1.40;;;12.00;99.90;;;;;;10051699;28;20478;-68
2024/01/25 06:56:24;;;;;;;4.10;1.45;;;12.00;99.90;;;;;;10053658;28;20032;-69
2024/01/25 07:01:23;;;;;;;5.80;1.38;;;12.00;99.90;;;;;;10051891;28;20059;-69
2024/01/25 07:06:14;;;;;;;1.95;0.88;;;12.00;99.90;;;;;;10062231;28;20029;-69
2024/01/25 07:11:04;;;;;;;6.38;1.35;;;12.00;99.90;;;;;;10059768;28;20495;-68
2024/01/25 07:15:55;;;;;;;2.03;1.10;;;11.90;99.90;;;;;;10063022;28;20407;-67
2024/01/25 07:20:46;;;;;;;2.58;1.17;;;11.90;99.90;;;;;;10058724;28;20053;-68
2024/01/25 07:25:36;;;;;;;6.70;1.73;;;12.00;99.90;;;;;;10059156;28;20633;-68
2024/01/25 07:30:27;;;;;;;7.10;1.42;;;12.00;99.90;;;;;;10057879;28;20033;-67
2024/01/25 07:41:05;;;;;;;4.47;1.38;;;12.00;99.90;;;;;;10039290;28;20136;-65
2024/01/25 07:45:55;;;;;;;2.15;1.00;;;11.80;99.90;;;;;;10047792;28;20113;-69
2024/01/25 07:50:47;;;;;;;3.40;1.00;;;11.90;99.90;;;;;;10047004;28;20132;-69
2024/01/25 07:55:37;;;;;;;3.15;1.02;;;11.80;99.90;;;;;;10059240;28;20025;-70
2024/01/25 08:00:28;;;;;;;3.53;1.08;;;11.90;99.90;;;;;;10060564;28;20057;-68
2024/01/25 08:05:19;;;;;;;2.38;1.08;;;11.80;99.90;;;;;;10058314;28;20116;-70
2024/01/25 08:10:10;;;;;;;2.05;1.15;;;11.80;99.90;;;;;;10058636;28;20123;-68
2024/01/25 08:15:01;;;;;;;1.00;0.82;;;11.80;99.90;;;;;;10060314;28;20040;-68
2024/01/25 08:19:51;;;;;;;2.88;1.00;;;11.80;99.90;;;;;;10059466;28;20039;-67
2024/01/25 08:24:43;;;;;;;5.55;1.45;;;11.80;99.90;;;;;;10050410;28;20037;-68
2024/01/25 08:29:34;;;;;;;3.60;1.50;;;11.90;99.90;;;;;;10063376;28;20038;-66
2024/01/25 08:34:24;;;;;;;4.30;1.25;;;11.90;99.90;;;;;;10054585;28;20014;-66
2024/01/25 08:39:15;;;;;;;3.58;0.90;;;12.00;99.90;;;;;;10045024;28;20033;-68
2024/01/25 08:44:06;;;;;;;1.85;1.25;;;12.00;99.90;;;;;;10038005;28;20022;-70
2024/01/25 08:48:57;;;;;;;2.35;1.10;;;11.90;99.90;;;;;;10048173;28;20087;-68
2024/01/25 08:53:50;;;;;;;4.97;1.30;;;12.00;99.90;;;;;;10035600;28;20029;-71
2024/01/25 08:58:41;;;;;;;3.13;2.13;;;12.00;99.90;;;;;;10053301;28;20397;-69
2024/01/25 09:03:32;;;;;;;5.60;1.60;;;12.00;99.90;;;;;;10051281;28;20487;-70
2024/01/25 09:08:23;;;;;;;6.45;1.88;;;12.00;99.90;;;;;;10056584;28;20621;-70
2024/01/25 09:13:13;;;;;;;4.53;1.50;;;12.00;99.90;;;;;;10051825;28;20025;-69
2024/01/25 09:18:04;;;;;;;3.83;1.75;;;12.00;99.90;;;;;;10050628;28;20105;-69
2024/01/25 09:22:55;;;;;;;3.70;1.52;;;12.00;99.90;;;;;;10054705;28;20499;-70
2024/01/25 09:27:46;;;;;;;2.80;1.40;;;12.00;99.90;;;;;;10055054;28;20065;-70
2024/01/25 09:32:37;;;;;;;3.65;1.48;;;12.00;99.90;;;;;;10057149;28;20025;-70
2024/01/25 09:37:28;;;;;;;1.60;1.17;;;12.00;99.90;;;;;;10055596;28;20040;-69
2024/01/25 09:42:19;;;;;;;3.10;1.48;;;12.00;99.90;;;;;;10054664;28;20105;-68
2024/01/25 09:47:10;;;;;;;2.33;1.00;;;12.20;99.90;;;;;;10056683;28;20025;-68
2024/01/25 09:52:03;;;;;;;1.13;0.65;;;12.20;99.90;;;;;;10060829;28;20047;-68
2024/01/25 09:56:54;;;;;;;2.42;0.70;;;12.10;99.90;;;;;;10052776;28;20409;-70
2024/01/25 10:01:49;;;;;;;1.33;0.80;;;12.00;99.90;;;;;;10053801;28;20069;-70
2024/01/25 10:06:39;;;;;;;2.25;0.73;;;12.00;99.90;;;;;;10055963;28;20583;-68
2024/01/25 10:11:35;;;;;;;1.48;0.88;;;12.00;99.90;;;;;;10053440;28;20037;-68
2024/01/25 10:16:26;;;;;;;;;;;12.00;99.90;;;;;;10042536;28;20057;-69
2024/01/25 10:21:17;;;;;;;1.95;1.05;;;12.00;99.90;;;;;;10055523;28;19917;-68
2024/01/25 10:26:10;;;;;;;1.98;1.35;;;12.10;99.90;;;;;;10054980;28;20040;-67
2024/01/25 10:31:04;;;;;;;1.63;1.30;;;12.10;99.90;;;;;;10040737;28;20037;-68
2024/01/25 10:35:55;;;;;;;3.22;0.70;;;12.20;99.90;;;;;;10048621;28;20483;-66
2024/01/25 10:40:47;;;;;;;1.13;0.63;;;12.30;99.90;;;;;;10055550;28;20037;-68
2024/01/25 10:45:38;;;;;;;3.30;0.70;;;12.40;99.90;;;;;;10055170;28;20440;-68
2024/01/25 10:50:28;;;;;;;2.58;1.10;;;12.40;99.90;;;;;;10054779;28;20049;-68
2024/01/25 10:55:20;;;;;;;3.25;0.98;;;12.40;99.90;;;;;;10055495;28;20029;-69
2024/01/25 11:00:12;;;;;;;4.95;1.58;;;12.40;99.90;;;;;;10059706;28;20031;-68
2024/01/25 11:05:10;;;;;;;3.08;0.77;;;12.50;99.90;;;;;;10057582;28;20038;-70
2024/01/25 11:10:01;;;;;;;2.60;1.00;;;12.60;99.90;;;;;;10042282;28;20048;-70
2024/01/25 11:15:07;;;;;;;1.48;0.75;;;12.60;99.90;;;;;;10046944;28;20112;-70
2024/01/25 11:20:00;;;;;;;1.63;0.98;;;12.60;99.90;;;;;;10041510;28;20040;-69
2024/01/25 11:24:51;;;;;;;2.65;1.33;;;12.60;99.90;;;;;;10054670;28;20042;-69
2024/01/25 11:30:02;;;;;;;2.53;1.10;;;12.70;99.90;;;;;;10046119;28;20049;-69
2024/01/25 11:34:59;;;;;;;4.75;1.75;;;12.80;99.90;;;;;;10040741;28;20026;-70
2024/01/25 11:39:50;;;;;;;2.08;1.00;;;12.90;99.90;;;;;;10044035;28;20030;-69
2024/01/25 11:44:41;;;;;;;2.92;1.15;;;12.90;99.90;;;;;;10046907;28;20072;-70
2024/01/25 11:49:31;;;;;;;3.38;1.08;;;12.90;99.90;;;;;;10047043;28;20037;-68
2024/01/25 11:54:22;;;;;;;5.35;1.35;;;12.90;99.90;;;;;;10038892;28;20053;-68
2024/01/25 11:59:13;;;;;;;3.88;0.98;;;12.80;99.90;;;;;;10042562;28;20705;-69
2024/01/25 12:04:07;;;;;;;3.70;0.70;;;12.70;99.90;;;;;;10056054;28;20547;-70
2024/01/25 12:09:08;;;;;;;2.33;0.68;;;12.70;99.90;;;;;;10049824;28;20077;-70
2024/01/25 12:13:59;;;;;;;3.80;1.33;;;12.70;99.90;;;;;;10045849;28;20060;-69
2024/01/25 12:18:49;;;;;;;5.55;0.90;;;12.70;99.90;;;;;;10041793;28;20075;-68
2024/01/25 12:23:43;;;;;;;1.67;0.82;;;12.70;99.90;;;;;;10035304;28;20580;-71
2024/01/25 12:28:34;;;;;;;0.75;0.55;;;12.70;99.90;;;;;;10058974;28;20045;-70
2024/01/25 12:33:25;;;;;;;3.00;0.90;;;12.70;99.90;;;;;;10050708;28;20036;-69
2024/01/25 12:38:15;;;;;;;1.38;0.88;;;12.70;99.90;;;;;;10047254;28;20030;-69
2024/01/25 12:43:07;;;;;;;3.08;0.80;;;12.60;99.90;;;;;;10055332;28;20029;-68
2024/01/25 12:48:06;;;;;;;1.27;0.88;;;12.60;99.90;;;;;;10043952;28;20026;-70
2024/01/25 12:52:57;;;;;;;4.25;1.13;;;12.60;99.90;;;;;;10044608;28;20033;-70
2024/01/25 12:57:47;;;;;;;3.25;1.08;;;12.50;99.90;;;;;;10045839;28;20540;-70
2024/01/25 13:02:38;;;;;;;2.85;1.17;;;12.50;99.90;;;;;;10050364;28;20503;-71
2024/01/25 13:07:29;;;;;;;1.85;1.08;;;12.60;99.90;;;;;;10053055;28;20636;-69
2024/01/25 13:12:20;;;;;;;2.25;1.13;;;12.50;99.90;;;;;;10044256;28;20033;-69
2024/01/25 13:17:11;;;;;;;2.22;0.88;;;12.50;99.90;;;;;;10046445;28;20124;-70
2024/01/25 13:22:01;;;;;;;2.17;1.10;;;12.50;99.90;;;;;;10051318;28;20121;-70
2024/01/25 13:26:52;;;;;;;1.60;1.13;;;12.50;99.90;;;;;;10054881;28;20541;-69
2024/01/25 13:31:43;;;;;;;1.60;1.35;;;12.40;99.90;;;;;;10055978;28;20464;-70
2024/01/25 13:36:36;;;;;;;1.52;1.23;;;12.50;99.90;;;;;;10054867;28;20017;-69
2024/01/25 13:41:27;;;;;;;3.38;1.63;;;12.50;99.90;;;;;;10047841;28;20045;-69
2024/01/25 13:46:18;;;;;;;1.67;0.90;;;12.50;99.90;;;;;;10045193;28;20364;-69
2024/01/25 13:51:08;;;;;;;2.15;1.17;;;12.50;99.90;;;;;;10051652;28;20045;-69
2024/01/25 13:55:59;;;;;;;3.13;1.80;;;12.50;99.90;;;;;;10055284;28;20121;-71
2024/01/25 14:00:49;;;;;;;2.53;1.40;;;12.50;99.90;;;;;;10046348;28;20030;-69
2024/01/25 14:05:40;;;;;;;1.45;1.02;;;12.50;99.90;;;;;;10039668;28;20033;-69
2024/01/25 14:10:32;;;;;;;2.20;1.33;;;12.50;99.90;;;;;;10035841;28;20124;-68
2024/01/25 14:15:23;;;;;;;1.48;1.05;;;12.50;99.90;;;;;;10047022;28;20022;-69
2024/01/25 14:20:14;;;;;;;4.13;1.23;;;12.50;99.90;;;;;;10054118;28;20587;-68
2024/01/25 14:25:05;;;;;;;1.98;1.20;;;12.50;99.90;;;;;;10055954;28;20030;-69
2024/01/25 14:29:55;;;;;;;1.42;1.30;;;12.50;99.90;;;;;;10059713;28;20507;-68
2024/01/25 14:34:50;;;;;;;1.95;1.40;;;12.50;99.90;;;;;;10055564;28;20029;-69
2024/01/25 14:39:41;;;;;;;2.97;1.35;;;12.40;99.90;;;;;;10087616;28;20231;-69
2024/01/25 14:44:31;;;;;;;1.88;1.20;;;12.40;99.90;;;;;;10042599;28;20495;-69
2024/01/25 14:49:23;;;;;;;2.75;1.70;;;12.40;99.90;;;;;;10061639;28;20095;-69
2024/01/25 14:54:14;;;;;;;1.83;1.27;;;12.30;99.90;;;;;;10063291;28;20033;-68
2024/01/25 14:59:04;;;;;;;2.60;1.50;;;12.30;99.90;;;;;;10064937;28;20445;-68
2024/01/25 15:03:58;;;;;;;2.38;1.00;;;12.30;99.90;;;;;;10061654;28;20403;-68
2024/01/25 15:08:48;;;;;;;3.63;1.60;;;12.30;99.90;;;;;;10062100;28;20120;-66
2024/01/25 15:13:39;;;;;;;1.95;0.90;;;12.40;99.90;;;;;;10059199;28;20067;-67
2024/01/25 15:18:30;;;;;;;2.55;0.85;;;12.30;99.90;;;;;;10056731;28;20403;-68
2024/01/25 15:23:21;;;;;;;1.52;1.35;;;12.30;99.90;;;;;;10060323;28;20087;-67
2024/01/25 15:28:12;;;;;;;1.83;0.88;;;12.30;99.90;;;;;;10061442;28;20061;-69
2024/01/25 15:33:05;;;;;;;1.65;0.77;;;12.30;99.90;;;;;;10071801;28;20072;-68
2024/01/25 15:37:56;;;;;;;1.67;1.17;;;12.30;99.90;;;;;;10060510;28;20052;-68
2024/01/25 15:42:51;;;;;;;1.70;1.00;;;12.30;99.90;;;;;;10071296;28;20021;-69
2024/01/25 15:47:43;;;;;;;1.73;0.95;;;12.20;99.90;;;;;;10061239;28;20026;-68
2024/01/25 15:52:34;;;;;;;1.52;1.17;;;12.30;99.90;;;;;;10059683;28;20041;-69
2024/01/25 15:57:25;;;;;;;3.42;1.38;;;12.30;99.90;;;;;;10060597;28;20503;-69
2024/01/25 16:02:16;;;;;;;3.58;1.30;;;12.30;99.90;;;;;;10059921;28;20041;-69
2024/01/25 16:07:06;;;;;;;1.73;1.40;;;12.20;99.90;;;;;;10052661;28;20045;-69
2024/01/25 16:11:57;;;;;;;2.08;1.30;;;12.20;99.90;;;;;;10058504;28;20046;-70
2024/01/25 16:16:48;;;;;;;6.03;1.60;;;12.20;99.90;;;;;;10059227;28;20041;-70
2024/01/25 16:21:39;;;;;;;1.55;0.80;;;12.20;99.90;;;;;;10055940;28;20065;-69
2024/01/25 16:26:31;;;;;;;1.55;1.08;;;12.20;99.90;;;;;;10059489;28;20029;-70
2024/01/25 16:31:21;;;;;;;2.30;1.05;;;12.20;99.90;;;;;;10058290;28;20496;-70
2024/01/25 16:36:12;;;;;;;3.22;1.10;;;12.20;99.90;;;;;;10059347;28;20025;-70
2024/01/25 16:41:03;;;;;;;3.85;0.95;;;12.20;99.90;;;;;;10059074;28;20025;-69
2024/01/25 16:45:54;;;;;;;2.45;1.42;;;12.20;99.90;;;;;;10059015;28;20036;-69
2024/01/25 16:50:44;;;;;;;2.03;1.30;;;12.20;99.90;;;;;;10058551;28;20033;-68
2024/01/25 16:55:35;;;;;;;3.33;1.17;;;12.20;99.90;;;;;;10058089;28;20558;-69
2024/01/25 17:00:28;;;;;;;1.88;1.10;;;12.20;99.90;;;;;;10057934;28;20060;-69
2024/01/25 17:05:18;;;;;;;3.28;1.20;;;12.20;99.90;;;;;;10058168;28;20519;-69
2024/01/25 17:10:09;;;;;;;2.40;1.98;;;12.20;99.90;;;;;;10055686;28;20045;-69
2024/01/25 17:15:00;;;;;;;1.85;1.27;;;12.10;99.90;;;;;;10056441;28;20018;-69
2024/01/25 17:19:50;;;;;;;3.15;1.58;;;12.10;99.90;;;;;;10062078;28;20072;-71
2024/01/25 17:24:41;;;;;;;3.55;2.10;;;12.10;99.90;;;;;;10057941;28;20045;-70
2024/01/25 17:29:32;;;;;;;2.85;1.55;;;12.10;99.90;;;;;;10066341;28;20037;-68
2024/01/25 17:34:22;;;;;;;3.15;2.10;;;12.10;99.90;;;;;;10075445;28;20081;-68
2024/01/25 17:39:13;;;;;;;2.47;1.92;;;12.10;99.90;;;;;;10068776;28;20108;-68
2024/01/25 17:44:04;;;;;;;5.15;2.20;;;12.10;99.90;;;;;;10072617;28;20040;-68
2024/01/25 17:48:54;;;;;;;2.38;1.92;;;12.10;99.90;;;;;;10080552;28;20330;-68
2024/01/25 17:53:45;;;;;;;2.97;2.13;;;12.10;99.90;;;;;;10078032;28;20035;-68
2024/01/25 17:58:36;;;;;;;4.95;2.55;;;12.10;99.90;;;;;;10074354;28;20052;-67
2024/01/25 18:03:26;;;;;;;8.32;3.70;;;12.10;99.90;;;;;;10075559;28;20116;-68
2024/01/25 18:08:17;;;;;;;6.78;3.38;;;12.10;99.90;;;;;;10075992;28;20029;-68
2024/01/25 18:13:08;;;;;;;4.53;3.35;;;12.10;99.90;;;;;;10040715;28;20069;-74
2024/01/25 18:17:59;;;;;;;5.88;3.40;;;12.20;99.90;;;;;;10059417;28;20033;-68
2024/01/25 18:22:50;;;;;;;7.82;4.20;;;12.20;99.90;;;;;;10055101;28;20056;-68
2024/01/25 18:27:42;;;;;;;6.32;3.50;;;12.10;99.90;;;;;;10064305;28;20040;-68
2024/01/25 18:32:32;;;;;;;6.70;3.90;;;12.20;99.90;;;;;;10063703;28;20025;-68
2024/01/25 18:37:23;;;;;;;6.95;3.95;;;12.20;99.90;;;;;;10064653;28;20044;-68
2024/01/25 18:42:14;;;;;;;6.60;4.13;;;12.20;99.90;;;;;;10065745;28;20025;-69
2024/01/25 18:47:06;;;;;;;5.45;3.55;;;12.10;99.90;;;;;;10061035;28;20041;-68
2024/01/25 18:52:00;;;;;;;5.90;3.88;;;12.10;99.90;;;;;;10062225;28;20414;-70
2024/01/25 18:56:51;;;;;;;9.10;4.95;;;12.10;99.90;;;;;;10051822;28;20124;-69
2024/01/25 19:01:42;;;;;;;7.68;4.38;;;12.20;99.90;;;;;;10057735;28;20096;-72
2024/01/25 19:06:34;;;;;;;6.40;4.22;;;12.20;99.90;;;;;;10062362;28;20033;-68
2024/01/25 19:11:25;;;;;;;7.05;3.63;;;12.20;99.90;;;;;;10061123;28;20616;-67
2024/01/25 19:16:16;;;;;;;6.30;4.25;;;12.20;99.90;;;;;;10060262;28;20040;-68
2024/01/25 19:21:07;;;;;;;7.05;4.50;;;12.10;99.90;;;;;;10061451;28;20523;-68
2024/01/25 19:25:59;;;;;;;6.05;3.88;;;12.10;99.90;;;;;;10062196;28;20103;-71
2024/01/25 19:30:50;;;;;;;7.20;4.45;;;12.20;99.90;;;;;;10061320;28;20045;-69
2024/01/25 19:35:46;;;;;;;7.65;4.32;;;12.20;99.90;;;;;;10067064;28;20048;-70
2024/01/25 19:40:36;;;;;;;6.00;3.72;;;12.20;99.90;;;;;;10056291;28;20395;-69
2024/01/25 19:45:31;;;;;;;9.38;4.65;;;12.20;99.90;;;;;;10053254;28;20037;-69
2024/01/25 19:50:21;;;;;;;7.55;4.25;;;12.10;99.90;;;;;;10092305;28;20467;-71
2024/01/25 19:55:13;;;;;;;6.70;4.00;;;12.10;99.90;;;;;;10051909;28;20029;-71
2024/01/25 20:00:06;;;;;;;7.80;5.07;;;12.20;99.90;;;;;;10048026;28;20045;-70
2024/01/25 20:05:00;;;;;;;8.60;5.07;;;12.10;99.90;;;;;;10051321;28;20033;-71
2024/01/25 20:09:51;;;;;;;8.80;4.43;;;12.10;99.90;;;;;;10057478;28;20504;-69
2024/01/25 20:14:42;;;;;;;8.40;4.82;;;12.10;99.90;;;;;;10035226;28;20037;-68
2024/01/25 20:19:32;;;;;;;8.90;4.57;;;12.10;99.90;;;;;;10046578;28;20093;-68
2024/01/25 20:24:24;;;;;;;7.47;4.30;;;12.10;99.90;;;;;;10050321;28;20041;-68
2024/01/25 20:29:16;;;;;;;8.93;5.15;;;12.10;99.90;;;;;;10046673;28;20051;-69
2024/01/25 20:34:06;;;;;;;8.98;4.93;;;12.00;99.90;;;;;;10064500;28;20034;-69
2024/01/25 20:38:58;;;;;;;10.10;5.07;;;12.00;99.90;;;;;;10052719;28;20511;-70
2024/01/25 20:43:48;;;;;;;7.45;5.07;;;12.00;99.90;;;;;;10042377;28;20040;-68
2024/01/25 20:48:39;;;;;;;6.93;5.25;;;12.10;99.90;;;;;;10045673;28;20045;-69
2024/01/25 20:53:30;;;;;;;5.82;4.68;;;12.00;99.90;;;;;;10046628;28;20029;-69
2024/01/25 20:58:21;;;;;;;6.80;4.97;;;12.10;99.90;;;;;;10051969;28;20055;-71
2024/01/25 21:03:12;;;;;;;7.03;4.35;;;12.10;99.90;;;;;;10053476;28;20021;-70
2024/01/25 21:08:04;;;;;;;8.15;4.18;;;12.10;99.90;;;;;;10035811;28;20034;-70
2024/01/25 21:12:55;;;;;;;7.13;4.15;;;12.00;99.90;;;;;;10047413;28;20044;-71
2024/01/25 21:17:45;;;;;;;7.95;3.88;;;12.00;99.90;;;;;;10050668;28;20749;-72
2024/01/25 21:22:36;;;;;;;5.05;3.72;;;12.00;99.90;;;;;;10044684;28;20041;-68
2024/01/25 21:27:27;;;;;;;6.65;3.92;;;12.00;99.90;;;;;;10028487;28;20048;-68
2024/01/25 21:32:18;;;;;;;8.50;4.88;;;12.00;99.90;;;;;;10023732;28;20026;-67
2024/01/25 21:37:08;;;;;;;6.43;3.70;;;12.00;99.90;;;;;;10042560;28;20160;-67
2024/01/25 21:41:59;;;;;;;6.10;3.80;;;12.00;99.90;;;;;;10052123;28;20036;-68
2024/01/25 21:46:50;;;;;;;4.97;3.80;;;12.00;99.90;;;;;;10037865;28;20400;-67
2024/01/25 21:51:47;;;;;;;4.97;3.20;;;12.10;99.90;;;;;;10051205;28;20048;-67
2024/01/25 21:56:37;;;;;;;5.18;2.90;;;12.10;99.90;;;;;;10053438;28;20049;-68
2024/01/25 22:01:28;;;;;;;4.50;2.70;;;12.10;99.90;;;;;;10056814;28;20722;-67
2024/01/25 22:06:19;;;;;;;4.63;2.88;;;12.10;99.90;;;;;;10055983;28;20026;-70
2024/01/25 22:11:10;;;;;;;4.78;2.88;;;12.10;99.90;;;;;;10055830;28;20120;-66
2024/01/25 22:16:00;;;;;;;5.07;3.03;;;12.10;99.90;;;;;;10055614;28;20037;-66
2024/01/25 22:20:51;;;;;;;4.95;3.03;;;12.00;99.90;;;;;;10045494;28;20056;-67
2024/01/25 22:25:43;;;;;;;5.63;3.13;;;12.00;99.90;;;;;;10050845;28;20038;-70
2024/01/25 22:30:33;;;;;;;4.53;3.17;;;12.00;99.90;;;;;;10037964;28;20146;-68
2024/01/25 22:35:24;;;;;;;5.65;2.92;;;12.00;99.90;;;;;;10036746;28;20026;-67
2024/01/25 22:40:15;;;;;;;4.97;3.38;;;12.00;99.90;;;;;;10043855;28;20137;-69
2024/01/25 22:45:06;;;;;;;6.10;3.50;;;11.90;99.90;;;;;;10051188;28;20037;-65
2024/01/25 22:49:56;;;;;;;6.53;4.25;;;11.90;99.90;;;;;;10044239;28;20041;-68
2024/01/25 22:54:50;;;;;;;6.35;4.07;;;11.90;99.90;;;;;;10042255;28;20585;-67
2024/01/25 22:59:41;;;;;;;8.05;4.85;;;11.90;99.90;;;;;;10037636;28;20095;-65
2024/01/25 23:04:31;;;;;;;8.70;4.95;;;11.80;99.90;;;;;;10049852;28;20958;-66
2024/01/25 23:09:22;;;;;;;6.57;4.53;;;11.80;99.90;;;;;;10049019;28;20079;-66
2024/01/25 23:14:13;;;;;;;6.55;4.57;;;11.90;99.90;;;;;;10061542;28;20033;-69
2024/01/25 23:19:03;;;;;;;6.10;4.03;;;11.80;99.90;;;;;;10059741;28;20041;-66
2024/01/25 23:23:54;;;;;;;7.35;4.60;;;11.90;99.90;;;;;;10061358;28;20049;-68
2024/01/25 23:28:45;;;;;;;7.53;5.20;;;11.80;99.90;;;;;;10060846;28;20103;-68
2024/01/25 23:33:35;;;;;;;8.60;4.95;;;11.80;99.90;;;;;;10061386;28;20025;-65
2024/01/25 23:38:26;;;;;;;10.13;5.00;;;11.80;99.90;;;;;;10061066;28;20027;-68
2024/01/25 23:43:17;;;;;;;7.68;4.70;;;11.80;99.90;;;;;;10060910;28;20021;-68
2024/01/25 23:48:08;;;;;;;8.23;4.65;;;11.80;99.90;;;;;;10059939;28;20421;-70
2024/01/25 23:52:59;;;;;;;8.60;4.90;;;11.70;99.90;;;;;;10068623;28;20065;-65
2024/01/25 23:57:50;;;;;;;8.05;4.57;;;11.70;99.90;;;;;;10059924;28;20057;-66
